sensor_id;sensor_type;location;lat;lon;timestamp;temperature;humidity
33093;DHT22;19456;46.104;12.908;2022-11-20T00:01:13;8.20;99.90
33093;DHT22;19456;46.104;12.908;2022-11-20T00:03:38;8.10;99.90
33093;DHT22;19456;46.104;12.908;2022-11-20T00:06:05;8.10;99.90
33093;DHT22;19456;46.104;12.908;2022-11-20T00:08:31;8.20;99.90
33093;DHT22;19456;46.104;12.908;2022-11-20T00:10:56;8.10;99.90
33093;DHT22;19456;46.104;12.908;2022-11-20T00:13:22;8.10;99.90
33093;DHT22;19456;46.104;12.908;2022-11-20T00:15:47;8.00;99.90
33093;DHT22;19456;46.104;12.908;2022-11-20T00:18:13;8.10;99.90
33093;DHT22;19456;46.104;12.908;2022-11-20T00:20:38;8.00;99.90
33093;DHT22;19456;46.104;12.908;2022-11-20T00:23:04;8.00;99.90
33093;DHT22;19456;46.104;12.908;2022-11-20T00:25:31;8.10;99.90
33093;DHT22;19456;46.104;12.908;2022-11-20T00:27:56;7.80;99.90
33093;DHT22;19456;46.104;12.908;2022-11-20T00:30:22;7.90;99.90
33093;DHT22;19456;46.104;12.908;2022-11-20T00:32:47;7.90;99.90
33093;DHT22;19456;46.104;12.908;2022-11-20T00:35:13;7.90;99.90
33093;DHT22;19456;46.104;12.908;2022-11-20T00:37:38;7.90;99.90
33093;DHT22;19456;46.104;12.908;2022-11-20T00:40:04;7.90;99.90
33093;DHT22;19456;46.104;12.908;2022-11-20T00:42:29;8.00;99.90
33093;DHT22;19456;46.104;12.908;2022-11-20T00:44:57;8.10;99.90
33093;DHT22;19456;46.104;12.908;2022-11-20T00:47:23;8.10;99.90
33093;DHT22;19456;46.104;12.908;2022-11-20T00:49:48;8.00;99.90
33093;DHT22;19456;46.104;12.908;2022-11-20T00:52:14;7.90;99.90
33093;DHT22;19456;46.104;12.908;2022-11-20T00:54:39;7.70;99.90
33093;DHT22;19456;46.104;12.908;2022-11-20T00:57:05;7.60;99.90
33093;DHT22;19456;46.104;12.908;2022-11-20T00:59:30;7.60;99.90
33093;DHT22;19456;46.104;12.908;2022-11-20T01:01:56;7.60;99.90
33093;DHT22;19456;46.104;12.908;2022-11-20T01:04:21;7.40;99.90
33093;DHT22;19456;46.104;12.908;2022-11-20T01:06:47;7.30;99.90
33093;DHT22;19456;46.104;12.908;2022-11-20T01:09:13;7.30;99.90
33093;DHT22;19456;46.104;12.908;2022-11-20T01:11:40;7.30;99.90
33093;DHT22;19456;46.104;12.908;2022-11-20T01:14:07;7.40;99.90
33093;DHT22;19456;46.104;12.908;2022-11-20T01:16:35;7.40;99.90
33093;DHT22;19456;46.104;12.908;2022-11-20T01:19:02;7.20;99.90
33093;DHT22;19456;46.104;12.908;2022-11-20T01:21:31;7.20;99.90
33093;DHT22;19456;46.104;12.908;2022-11-20T01:23:57;7.20;99.90
33093;DHT22;19456;46.104;12.908;2022-11-20T01:26:24;7.30;99.90
33093;DHT22;19456;46.104;12.908;2022-11-20T01:28:50;7.50;99.90
33093;DHT22;19456;46.104;12.908;2022-11-20T01:31:19;7.70;99.90
33093;DHT22;19456;46.104;12.908;2022-11-20T01:33:45;7.80;99.90
33093;DHT22;19456;46.104;12.908;2022-11-20T01:36:12;8.00;99.90
33093;DHT22;19456;46.104;12.908;2022-11-20T01:38:37;8.10;99.90
33093;DHT22;19456;46.104;12.908;2022-11-20T01:41:03;8.40;99.90
33093;DHT22;19456;46.104;12.908;2022-11-20T01:43:29;8.60;99.90
33093;DHT22;19456;46.104;12.908;2022-11-20T01:46:03;8.80;99.90
33093;DHT22;19456;46.104;12.908;2022-11-20T01:48:33;9.00;99.90
33093;DHT22;19456;46.104;12.908;2022-11-20T01:51:01;9.00;99.90
33093;DHT22;19456;46.104;12.908;2022-11-20T01:53:29;9.20;99.90
33093;DHT22;19456;46.104;12.908;2022-11-20T01:55:56;9.20;99.90
33093;DHT22;19456;46.104;12.908;2022-11-20T01:58:25;9.20;99.90
33093;DHT22;19456;46.104;12.908;2022-11-20T02:00:52;9.20;99.90
33093;DHT22;19456;46.104;12.908;2022-11-20T02:03:18;9.10;99.90
33093;DHT22;19456;46.104;12.908;2022-11-20T02:05:46;9.00;99.90
33093;DHT22;19456;46.104;12.908;2022-11-20T02:08:12;9.00;99.90
33093;DHT22;19456;46.104;12.908;2022-11-20T02:10:38;8.90;99.90
33093;DHT22;19456;46.104;12.908;2022-11-20T02:13:04;8.70;99.90
33093;DHT22;19456;46.104;12.908;2022-11-20T02:15:48;8.50;99.90
33093;DHT22;19456;46.104;12.908;2022-11-20T02:18:14;8.30;99.90
33093;DHT22;19456;46.104;12.908;2022-11-20T02:20:44;8.40;99.90
33093;DHT22;19456;46.104;12.908;2022-11-20T02:23:12;8.60;99.90
33093;DHT22;19456;46.104;12.908;2022-11-20T02:25:38;8.70;99.90
33093;DHT22;19456;46.104;12.908;2022-11-20T02:28:05;8.80;99.90
33093;DHT22;19456;46.104;12.908;2022-11-20T02:30:30;8.90;99.90
33093;DHT22;19456;46.104;12.908;2022-11-20T02:32:57;9.00;99.90
33093;DHT22;19456;46.104;12.908;2022-11-20T02:37:48;9.00;99.90
33093;DHT22;19456;46.104;12.908;2022-11-20T02:40:14;9.00;99.90
33093;DHT22;19456;46.104;12.908;2022-11-20T02:42:39;8.90;99.90
33093;DHT22;19456;46.104;12.908;2022-11-20T02:45:05;9.00;99.90
33093;DHT22;19456;46.104;12.908;2022-11-20T02:47:31;8.90;99.90
33093;DHT22;19456;46.104;12.908;2022-11-20T02:49:57;8.90;99.90
33093;DHT22;19456;46.104;12.908;2022-11-20T02:52:23;8.80;99.90
33093;DHT22;19456;46.104;12.908;2022-11-20T02:54:48;8.80;99.90
33093;DHT22;19456;46.104;12.908;2022-11-20T02:57:14;8.80;99.90
33093;DHT22;19456;46.104;12.908;2022-11-20T02:59:39;8.60;99.90
33093;DHT22;19456;46.104;12.908;2022-11-20T03:02:05;8.50;99.90
33093;DHT22;19456;46.104;12.908;2022-11-20T03:04:30;8.00;99.90
33093;DHT22;19456;46.104;12.908;2022-11-20T03:06:56;8.00;99.90
33093;DHT22;19456;46.104;12.908;2022-11-20T03:09:21;7.90;99.90
33093;DHT22;19456;46.104;12.908;2022-11-20T03:11:47;7.90;99.90
33093;DHT22;19456;46.104;12.908;2022-11-20T03:14:12;8.00;99.90
33093;DHT22;19456;46.104;12.908;2022-11-20T03:16:38;8.00;99.90
33093;DHT22;19456;46.104;12.908;2022-11-20T03:19:04;8.00;99.90
33093;DHT22;19456;46.104;12.908;2022-11-20T03:21:29;8.00;99.90
33093;DHT22;19456;46.104;12.908;2022-11-20T03:23:55;8.20;99.90
33093;DHT22;19456;46.104;12.908;2022-11-20T03:26:21;8.30;99.90
33093;DHT22;19456;46.104;12.908;2022-11-20T03:28:52;8.40;99.90
33093;DHT22;19456;46.104;12.908;2022-11-20T03:31:18;8.50;99.90
33093;DHT22;19456;46.104;12.908;2022-11-20T03:33:44;8.60;99.90
33093;DHT22;19456;46.104;12.908;2022-11-20T03:36:11;8.70;99.90
33093;DHT22;19456;46.104;12.908;2022-11-20T03:38:37;8.70;99.90
33093;DHT22;19456;46.104;12.908;2022-11-20T03:41:07;8.90;99.90
33093;DHT22;19456;46.104;12.908;2022-11-20T03:43:33;8.90;99.90
33093;DHT22;19456;46.104;12.908;2022-11-20T03:45:59;8.90;99.90
33093;DHT22;19456;46.104;12.908;2022-11-20T03:48:24;8.80;99.90
33093;DHT22;19456;46.104;12.908;2022-11-20T03:50:51;8.80;99.90
33093;DHT22;19456;46.104;12.908;2022-11-20T03:53:16;8.80;99.90
33093;DHT22;19456;46.104;12.908;2022-11-20T03:55:42;8.80;99.90
33093;DHT22;19456;46.104;12.908;2022-11-20T03:58:07;8.90;99.90
33093;DHT22;19456;46.104;12.908;2022-11-20T04:00:33;8.90;99.90
33093;DHT22;19456;46.104;12.908;2022-11-20T04:02:59;8.80;99.90
33093;DHT22;19456;46.104;12.908;2022-11-20T04:05:24;8.80;99.90
33093;DHT22;19456;46.104;12.908;2022-11-20T04:07:50;8.80;99.90
33093;DHT22;19456;46.104;12.908;2022-11-20T04:10:15;8.80;99.90
33093;DHT22;19456;46.104;12.908;2022-11-20T04:12:41;8.80;99.90
33093;DHT22;19456;46.104;12.908;2022-11-20T04:15:06;8.80;99.90
33093;DHT22;19456;46.104;12.908;2022-11-20T04:17:32;8.80;99.90
33093;DHT22;19456;46.104;12.908;2022-11-20T04:19:58;8.80;99.90
33093;DHT22;19456;46.104;12.908;2022-11-20T04:22:23;8.80;99.90
33093;DHT22;19456;46.104;12.908;2022-11-20T04:24:49;8.80;99.90
33093;DHT22;19456;46.104;12.908;2022-11-20T04:27:14;8.80;99.90
33093;DHT22;19456;46.104;12.908;2022-11-20T04:29:40;8.80;99.90
33093;DHT22;19456;46.104;12.908;2022-11-20T04:32:05;8.80;99.90
33093;DHT22;19456;46.104;12.908;2022-11-20T04:34:31;8.80;99.90
33093;DHT22;19456;46.104;12.908;2022-11-20T04:36:56;8.80;99.90
33093;DHT22;19456;46.104;12.908;2022-11-20T04:39:22;8.80;99.90
33093;DHT22;19456;46.104;12.908;2022-11-20T04:41:47;8.90;99.90
33093;DHT22;19456;46.104;12.908;2022-11-20T04:44:13;8.80;99.90
33093;DHT22;19456;46.104;12.908;2022-11-20T04:46:40;8.70;99.90
33093;DHT22;19456;46.104;12.908;2022-11-20T04:49:06;8.80;99.90
33093;DHT22;19456;46.104;12.908;2022-11-20T04:51:32;8.70;99.90
33093;DHT22;19456;46.104;12.908;2022-11-20T04:53:58;8.70;99.90
33093;DHT22;19456;46.104;12.908;2022-11-20T04:56:23;8.70;99.90
33093;DHT22;19456;46.104;12.908;2022-11-20T04:58:49;8.70;99.90
33093;DHT22;19456;46.104;12.908;2022-11-20T05:01:16;8.70;99.90
33093;DHT22;19456;46.104;12.908;2022-11-20T05:03:42;8.60;99.90
33093;DHT22;19456;46.104;12.908;2022-11-20T05:06:08;8.60;99.90
33093;DHT22;19456;46.104;12.908;2022-11-20T05:08:34;8.60;99.90
33093;DHT22;19456;46.104;12.908;2022-11-20T05:11:03;8.50;99.90
33093;DHT22;19456;46.104;12.908;2022-11-20T05:13:29;8.50;99.90
33093;DHT22;19456;46.104;12.908;2022-11-20T05:15:55;8.60;99.90
33093;DHT22;19456;46.104;12.908;2022-11-20T05:18:20;8.60;99.90
33093;DHT22;19456;46.104;12.908;2022-11-20T05:20:46;8.60;99.90
33093;DHT22;19456;46.104;12.908;2022-11-20T05:23:11;8.60;99.90
33093;DHT22;19456;46.104;12.908;2022-11-20T05:25:37;8.60;99.90
33093;DHT22;19456;46.104;12.908;2022-11-20T05:28:02;8.60;99.90
33093;DHT22;19456;46.104;12.908;2022-11-20T05:30:28;8.60;99.90
33093;DHT22;19456;46.104;12.908;2022-11-20T05:32:53;8.60;99.90
33093;DHT22;19456;46.104;12.908;2022-11-20T05:35:19;8.60;99.90
33093;DHT22;19456;46.104;12.908;2022-11-20T05:37:44;8.60;99.90
33093;DHT22;19456;46.104;12.908;2022-11-20T05:40:10;8.50;99.90
33093;DHT22;19456;46.104;12.908;2022-11-20T05:42:35;8.40;99.90
33093;DHT22;19456;46.104;12.908;2022-11-20T05:45:02;8.30;99.90
33093;DHT22;19456;46.104;12.908;2022-11-20T05:47:30;8.20;99.90
33093;DHT22;19456;46.104;12.908;2022-11-20T05:49:56;8.20;99.90
33093;DHT22;19456;46.104;12.908;2022-11-20T05:52:21;8.20;99.90
33093;DHT22;19456;46.104;12.908;2022-11-20T05:54:47;8.10;99.90
33093;DHT22;19456;46.104;12.908;2022-11-20T05:57:13;8.10;99.90
33093;DHT22;19456;46.104;12.908;2022-11-20T05:59:38;8.00;99.90
33093;DHT22;19456;46.104;12.908;2022-11-20T06:02:04;8.00;99.90
33093;DHT22;19456;46.104;12.908;2022-11-20T06:04:29;8.00;99.90
33093;DHT22;19456;46.104;12.908;2022-11-20T06:06:55;7.90;99.90
33093;DHT22;19456;46.104;12.908;2022-11-20T06:09:21;7.80;99.90
33093;DHT22;19456;46.104;12.908;2022-11-20T06:11:46;7.80;99.90
33093;DHT22;19456;46.104;12.908;2022-11-20T06:14:12;7.80;99.90
33093;DHT22;19456;46.104;12.908;2022-11-20T06:16:37;7.80;99.90
33093;DHT22;19456;46.104;12.908;2022-11-20T06:19:03;7.80;99.90
33093;DHT22;19456;46.104;12.908;2022-11-20T06:21:28;7.80;99.90
33093;DHT22;19456;46.104;12.908;2022-11-20T06:23:54;7.80;99.90
33093;DHT22;19456;46.104;12.908;2022-11-20T06:28:45;7.30;99.90
33093;DHT22;19456;46.104;12.908;2022-11-20T06:31:11;7.30;99.90
33093;DHT22;19456;46.104;12.908;2022-11-20T06:33:37;7.30;99.90
33093;DHT22;19456;46.104;12.908;2022-11-20T06:36:02;7.50;99.90
33093;DHT22;19456;46.104;12.908;2022-11-20T06:38:28;7.50;99.90
33093;DHT22;19456;46.104;12.908;2022-11-20T06:40:54;7.20;99.90
33093;DHT22;19456;46.104;12.908;2022-11-20T06:43:20;7.00;99.90
33093;DHT22;19456;46.104;12.908;2022-11-20T06:45:45;7.00;99.90
33093;DHT22;19456;46.104;12.908;2022-11-20T06:48:11;7.10;99.90
33093;DHT22;19456;46.104;12.908;2022-11-20T06:50:37;7.10;99.90
33093;DHT22;19456;46.104;12.908;2022-11-20T06:53:03;7.20;99.90
33093;DHT22;19456;46.104;12.908;2022-11-20T06:55:29;7.20;99.90
33093;DHT22;19456;46.104;12.908;2022-11-20T06:57:55;7.20;99.90
33093;DHT22;19456;46.104;12.908;2022-11-20T07:00:20;7.20;99.90
33093;DHT22;19456;46.104;12.908;2022-11-20T07:02:46;7.20;99.90
33093;DHT22;19456;46.104;12.908;2022-11-20T07:05:11;7.30;99.90
33093;DHT22;19456;46.104;12.908;2022-11-20T07:07:37;7.20;99.90
33093;DHT22;19456;46.104;12.908;2022-11-20T07:10:03;7.10;99.90
33093;DHT22;19456;46.104;12.908;2022-11-20T07:12:28;6.90;99.90
33093;DHT22;19456;46.104;12.908;2022-11-20T07:14:54;6.80;99.90
33093;DHT22;19456;46.104;12.908;2022-11-20T07:17:19;6.80;99.90
33093;DHT22;19456;46.104;12.908;2022-11-20T07:19:45;6.80;99.90
33093;DHT22;19456;46.104;12.908;2022-11-20T07:22:10;6.70;99.90
33093;DHT22;19456;46.104;12.908;2022-11-20T07:24:36;6.70;99.90
33093;DHT22;19456;46.104;12.908;2022-11-20T07:27:01;6.80;99.90
33093;DHT22;19456;46.104;12.908;2022-11-20T07:29:27;6.80;99.90
33093;DHT22;19456;46.104;12.908;2022-11-20T07:31:52;6.90;99.90
33093;DHT22;19456;46.104;12.908;2022-11-20T07:34:18;6.80;99.90
33093;DHT22;19456;46.104;12.908;2022-11-20T07:36:45;6.80;99.90
33093;DHT22;19456;46.104;12.908;2022-11-20T07:39:10;6.70;99.90
33093;DHT22;19456;46.104;12.908;2022-11-20T07:41:36;6.70;99.90
33093;DHT22;19456;46.104;12.908;2022-11-20T07:44:01;6.70;99.90
33093;DHT22;19456;46.104;12.908;2022-11-20T07:46:27;6.80;99.90
33093;DHT22;19456;46.104;12.908;2022-11-20T07:48:52;6.90;99.90
33093;DHT22;19456;46.104;12.908;2022-11-20T07:51:18;7.10;99.90
33093;DHT22;19456;46.104;12.908;2022-11-20T07:53:43;7.10;99.90
33093;DHT22;19456;46.104;12.908;2022-11-20T07:56:09;7.20;99.90
33093;DHT22;19456;46.104;12.908;2022-11-20T07:58:34;7.30;99.90
33093;DHT22;19456;46.104;12.908;2022-11-20T08:01:04;7.40;99.90
33093;DHT22;19456;46.104;12.908;2022-11-20T08:03:29;7.50;99.90
33093;DHT22;19456;46.104;12.908;2022-11-20T08:05:57;7.50;99.90
33093;DHT22;19456;46.104;12.908;2022-11-20T08:08:23;7.50;99.90
33093;DHT22;19456;46.104;12.908;2022-11-20T08:10:48;7.50;99.90
33093;DHT22;19456;46.104;12.908;2022-11-20T08:13:14;7.50;99.90
33093;DHT22;19456;46.104;12.908;2022-11-20T08:16:00;7.50;99.90
33093;DHT22;19456;46.104;12.908;2022-11-20T08:18:26;7.50;99.90
33093;DHT22;19456;46.104;12.908;2022-11-20T08:20:52;7.50;99.90
33093;DHT22;19456;46.104;12.908;2022-11-20T08:23:17;7.30;99.90
33093;DHT22;19456;46.104;12.908;2022-11-20T08:25:43;7.30;99.90
33093;DHT22;19456;46.104;12.908;2022-11-20T08:28:09;7.20;99.90
33093;DHT22;19456;46.104;12.908;2022-11-20T08:30:35;7.30;99.90
33093;DHT22;19456;46.104;12.908;2022-11-20T08:33:07;7.30;99.90
33093;DHT22;19456;46.104;12.908;2022-11-20T08:35:37;7.40;99.90
33093;DHT22;19456;46.104;12.908;2022-11-20T08:38:03;7.60;99.90
33093;DHT22;19456;46.104;12.908;2022-11-20T08:40:29;7.70;99.90
33093;DHT22;19456;46.104;12.908;2022-11-20T08:42:55;7.80;99.90
33093;DHT22;19456;46.104;12.908;2022-11-20T08:45:20;8.00;99.90
33093;DHT22;19456;46.104;12.908;2022-11-20T08:47:46;8.20;99.90
33093;DHT22;19456;46.104;12.908;2022-11-20T08:50:12;8.40;99.90
33093;DHT22;19456;46.104;12.908;2022-11-20T08:52:38;8.50;99.90
33093;DHT22;19456;46.104;12.908;2022-11-20T08:55:04;8.40;99.90
33093;DHT22;19456;46.104;12.908;2022-11-20T08:57:36;8.40;99.90
33093;DHT22;19456;46.104;12.908;2022-11-20T09:00:03;8.60;99.90
33093;DHT22;19456;46.104;12.908;2022-11-20T09:02:29;8.70;99.90
33093;DHT22;19456;46.104;12.908;2022-11-20T09:04:55;8.80;99.90
33093;DHT22;19456;46.104;12.908;2022-11-20T09:07:20;8.90;99.90
33093;DHT22;19456;46.104;12.908;2022-11-20T09:09:46;8.90;99.90
33093;DHT22;19456;46.104;12.908;2022-11-20T09:12:11;8.90;99.90
33093;DHT22;19456;46.104;12.908;2022-11-20T09:14:37;8.80;99.90
33093;DHT22;19456;46.104;12.908;2022-11-20T09:17:02;8.70;99.90
33093;DHT22;19456;46.104;12.908;2022-11-20T09:19:28;8.70;99.90
33093;DHT22;19456;46.104;12.908;2022-11-20T09:21:53;8.90;99.90
33093;DHT22;19456;46.104;12.908;2022-11-20T09:24:19;9.10;99.90
33093;DHT22;19456;46.104;12.908;2022-11-20T09:26:49;9.30;99.90
33093;DHT22;19456;46.104;12.908;2022-11-20T09:29:14;9.50;99.90
33093;DHT22;19456;46.104;12.908;2022-11-20T09:31:40;9.70;99.90
33093;DHT22;19456;46.104;12.908;2022-11-20T09:34:05;9.70;99.90
33093;DHT22;19456;46.104;12.908;2022-11-20T09:36:31;9.80;99.90
33093;DHT22;19456;46.104;12.908;2022-11-20T09:38:56;9.80;99.90
33093;DHT22;19456;46.104;12.908;2022-11-20T09:44:18;10.20;99.90
33093;DHT22;19456;46.104;12.908;2022-11-20T09:46:53;10.40;99.90
33093;DHT22;19456;46.104;12.908;2022-11-20T09:51:52;10.70;99.90
33093;DHT22;19456;46.104;12.908;2022-11-20T09:54:22;10.90;99.90
33093;DHT22;19456;46.104;12.908;2022-11-20T09:56:50;11.00;99.90
33093;DHT22;19456;46.104;12.908;2022-11-20T09:59:20;11.00;99.90
33093;DHT22;19456;46.104;12.908;2022-11-20T10:01:49;11.10;99.90
33093;DHT22;19456;46.104;12.908;2022-11-20T10:04:19;11.20;99.90
33093;DHT22;19456;46.104;12.908;2022-11-20T10:09:38;11.50;99.90
33093;DHT22;19456;46.104;12.908;2022-11-20T10:14:43;11.40;99.90
33093;DHT22;19456;46.104;12.908;2022-11-20T10:17:21;11.10;99.90
33093;DHT22;19456;46.104;12.908;2022-11-20T10:20:34;11.20;99.90
33093;DHT22;19456;46.104;12.908;2022-11-20T10:30:37;12.10;99.90
33093;DHT22;19456;46.104;12.908;2022-11-20T10:33:21;12.30;99.90
33093;DHT22;19456;46.104;12.908;2022-11-20T10:35:55;12.50;99.90
33093;DHT22;19456;46.104;12.908;2022-11-20T10:38:26;12.60;99.90
33093;DHT22;19456;46.104;12.908;2022-11-20T10:40:56;12.80;99.90
33093;DHT22;19456;46.104;12.908;2022-11-20T10:43:43;12.80;99.90
33093;DHT22;19456;46.104;12.908;2022-11-20T10:46:10;12.90;99.90
33093;DHT22;19456;46.104;12.908;2022-11-20T10:48:37;13.20;99.90
33093;DHT22;19456;46.104;12.908;2022-11-20T11:01:40;15.20;99.90
33093;DHT22;19456;46.104;12.908;2022-11-20T11:04:07;15.50;99.90
33093;DHT22;19456;46.104;12.908;2022-11-20T11:06:37;16.30;99.90
33093;DHT22;19456;46.104;12.908;2022-11-20T11:09:09;17.00;99.90
33093;DHT22;19456;46.104;12.908;2022-11-20T11:11:35;17.40;99.90
33093;DHT22;19456;46.104;12.908;2022-11-20T11:14:06;17.50;99.90
33093;DHT22;19456;46.104;12.908;2022-11-20T11:16:32;18.20;99.90
33093;DHT22;19456;46.104;12.908;2022-11-20T11:19:11;18.60;99.90
33093;DHT22;19456;46.104;12.908;2022-11-20T11:21:37;18.90;99.90
33093;DHT22;19456;46.104;12.908;2022-11-20T11:24:14;18.90;99.90
33093;DHT22;19456;46.104;12.908;2022-11-20T11:26:41;19.50;99.90
33093;DHT22;19456;46.104;12.908;2022-11-20T11:29:17;19.90;99.90
33093;DHT22;19456;46.104;12.908;2022-11-20T11:31:42;19.20;99.90
33093;DHT22;19456;46.104;12.908;2022-11-20T11:34:12;19.80;99.90
33093;DHT22;19456;46.104;12.908;2022-11-20T11:36:38;20.00;99.90
33093;DHT22;19456;46.104;12.908;2022-11-20T11:39:04;19.70;98.90
33093;DHT22;19456;46.104;12.908;2022-11-20T11:41:32;19.40;98.30
33093;DHT22;19456;46.104;12.908;2022-11-20T11:44:01;19.50;98.30
33093;DHT22;19456;46.104;12.908;2022-11-20T11:46:53;19.60;97.30
33093;DHT22;19456;46.104;12.908;2022-11-20T11:49:19;20.10;97.20
33093;DHT22;19456;46.104;12.908;2022-11-20T11:54:14;20.70;96.60
33093;DHT22;19456;46.104;12.908;2022-11-20T11:56:41;21.60;95.00
33093;DHT22;19456;46.104;12.908;2022-11-20T11:59:06;21.90;93.10
33093;DHT22;19456;46.104;12.908;2022-11-20T12:01:47;22.30;92.80
33093;DHT22;19456;46.104;12.908;2022-11-20T12:04:59;22.10;91.80
33093;DHT22;19456;46.104;12.908;2022-11-20T12:07:12;21.80;91.40
33093;DHT22;19456;46.104;12.908;2022-11-20T12:09:46;22.50;91.10
33093;DHT22;19456;46.104;12.908;2022-11-20T12:12:23;22.40;90.30
33093;DHT22;19456;46.104;12.908;2022-11-20T12:14:50;23.10;88.80
33093;DHT22;19456;46.104;12.908;2022-11-20T12:17:18;23.20;84.90
33093;DHT22;19456;46.104;12.908;2022-11-20T12:19:43;23.60;82.00
33093;DHT22;19456;46.104;12.908;2022-11-20T12:22:23;23.60;82.00
33093;DHT22;19456;46.104;12.908;2022-11-20T12:27:35;24.10;77.50
33093;DHT22;19456;46.104;12.908;2022-11-20T12:30:14;24.40;77.20
33093;DHT22;19456;46.104;12.908;2022-11-20T12:45:30;26.90;68.40
33093;DHT22;19456;46.104;12.908;2022-11-20T12:48:15;27.20;66.10
33093;DHT22;19456;46.104;12.908;2022-11-20T12:55:47;26.90;61.40
33093;DHT22;19456;46.104;12.908;2022-11-20T12:58:27;26.40;64.50
33093;DHT22;19456;46.104;12.908;2022-11-20T13:01:10;26.60;62.60
33093;DHT22;19456;46.104;12.908;2022-11-20T13:04:00;26.90;62.60
33093;DHT22;19456;46.104;12.908;2022-11-20T13:06:32;26.90;60.40
33093;DHT22;19456;46.104;12.908;2022-11-20T13:08:57;27.20;60.40
33093;DHT22;19456;46.104;12.908;2022-11-20T13:16:25;27.30;58.60
33093;DHT22;19456;46.104;12.908;2022-11-20T13:18:55;27.50;58.30
33093;DHT22;19456;46.104;12.908;2022-11-20T13:21:21;27.60;58.60
33093;DHT22;19456;46.104;12.908;2022-11-20T13:23:47;27.10;57.80
33093;DHT22;19456;46.104;12.908;2022-11-20T13:26:17;26.50;58.40
33093;DHT22;19456;46.104;12.908;2022-11-20T13:28:45;26.40;58.60
33093;DHT22;19456;46.104;12.908;2022-11-20T13:31:23;26.20;58.40
33093;DHT22;19456;46.104;12.908;2022-11-20T13:33:52;26.50;58.00
33093;DHT22;19456;46.104;12.908;2022-11-20T13:36:20;26.20;58.10
33093;DHT22;19456;46.104;12.908;2022-11-20T13:38:47;25.90;59.60
33093;DHT22;19456;46.104;12.908;2022-11-20T13:41:23;25.30;59.40
33093;DHT22;19456;46.104;12.908;2022-11-20T13:46:36;25.10;60.00
33093;DHT22;19456;46.104;12.908;2022-11-20T13:49:06;25.60;60.10
33093;DHT22;19456;46.104;12.908;2022-11-20T13:51:48;25.80;59.00
33093;DHT22;19456;46.104;12.908;2022-11-20T14:02:16;23.10;64.30
33093;DHT22;19456;46.104;12.908;2022-11-20T14:04:52;21.00;69.60
33093;DHT22;19456;46.104;12.908;2022-11-20T14:07:19;19.40;74.70
33093;DHT22;19456;46.104;12.908;2022-11-20T14:09:53;18.10;80.40
33093;DHT22;19456;46.104;12.908;2022-11-20T14:12:20;17.40;85.90
33093;DHT22;19456;46.104;12.908;2022-11-20T14:14:53;17.00;88.60
33093;DHT22;19456;46.104;12.908;2022-11-20T14:17:23;16.40;90.60
33093;DHT22;19456;46.104;12.908;2022-11-20T14:19:51;15.80;92.10
33093;DHT22;19456;46.104;12.908;2022-11-20T14:22:21;15.30;93.70
33093;DHT22;19456;46.104;12.908;2022-11-20T14:24:47;14.80;96.40
33093;DHT22;19456;46.104;12.908;2022-11-20T14:27:18;14.50;98.90
33093;DHT22;19456;46.104;12.908;2022-11-20T14:29:45;14.10;99.90
33093;DHT22;19456;46.104;12.908;2022-11-20T14:32:12;13.80;99.90
33093;DHT22;19456;46.104;12.908;2022-11-20T14:34:40;13.50;99.90
33093;DHT22;19456;46.104;12.908;2022-11-20T14:37:10;13.20;99.90
33093;DHT22;19456;46.104;12.908;2022-11-20T14:39:37;13.10;99.90
33093;DHT22;19456;46.104;12.908;2022-11-20T14:42:03;12.90;99.90
33093;DHT22;19456;46.104;12.908;2022-11-20T14:44:39;12.90;99.90
33093;DHT22;19456;46.104;12.908;2022-11-20T14:47:04;12.80;99.90
33093;DHT22;19456;46.104;12.908;2022-11-20T14:49:30;12.60;99.90
33093;DHT22;19456;46.104;12.908;2022-11-20T14:52:00;12.50;99.90
33093;DHT22;19456;46.104;12.908;2022-11-20T14:54:26;12.40;99.90
33093;DHT22;19456;46.104;12.908;2022-11-20T14:57:00;12.30;99.90
33093;DHT22;19456;46.104;12.908;2022-11-20T14:59:28;12.20;99.90
33093;DHT22;19456;46.104;12.908;2022-11-20T15:01:58;12.10;99.90
33093;DHT22;19456;46.104;12.908;2022-11-20T15:04:24;12.00;99.90
33093;DHT22;19456;46.104;12.908;2022-11-20T15:06:51;11.90;99.90
33093;DHT22;19456;46.104;12.908;2022-11-20T15:09:16;11.90;99.90
33093;DHT22;19456;46.104;12.908;2022-11-20T15:11:50;11.80;99.90
33093;DHT22;19456;46.104;12.908;2022-11-20T15:14:17;11.60;99.90
33093;DHT22;19456;46.104;12.908;2022-11-20T15:16:42;11.60;99.90
33093;DHT22;19456;46.104;12.908;2022-11-20T15:19:13;11.40;99.90
33093;DHT22;19456;46.104;12.908;2022-11-20T15:21:41;11.40;99.90
33093;DHT22;19456;46.104;12.908;2022-11-20T15:24:08;11.30;99.90
33093;DHT22;19456;46.104;12.908;2022-11-20T15:26:34;11.20;99.90
33093;DHT22;19456;46.104;12.908;2022-11-20T15:28:59;11.20;99.90
33093;DHT22;19456;46.104;12.908;2022-11-20T15:31:25;11.10;99.90
33093;DHT22;19456;46.104;12.908;2022-11-20T15:33:51;11.00;99.90
33093;DHT22;19456;46.104;12.908;2022-11-20T15:36:16;10.90;99.90
33093;DHT22;19456;46.104;12.908;2022-11-20T15:38:42;10.90;99.90
33093;DHT22;19456;46.104;12.908;2022-11-20T15:41:07;10.90;99.90
33093;DHT22;19456;46.104;12.908;2022-11-20T15:43:33;10.90;99.90
33093;DHT22;19456;46.104;12.908;2022-11-20T15:46:00;10.90;99.90
33093;DHT22;19456;46.104;12.908;2022-11-20T15:48:27;10.90;99.90
33093;DHT22;19456;46.104;12.908;2022-11-20T15:53:19;10.80;99.90
33093;DHT22;19456;46.104;12.908;2022-11-20T15:55:45;10.70;99.90
33093;DHT22;19456;46.104;12.908;2022-11-20T15:58:10;10.70;99.90
33093;DHT22;19456;46.104;12.908;2022-11-20T16:00:36;10.70;99.90
33093;DHT22;19456;46.104;12.908;2022-11-20T16:03:01;10.70;99.90
33093;DHT22;19456;46.104;12.908;2022-11-20T16:05:28;10.70;99.90
33093;DHT22;19456;46.104;12.908;2022-11-20T16:07:53;10.70;99.90
33093;DHT22;19456;46.104;12.908;2022-11-20T16:10:19;10.70;99.90
33093;DHT22;19456;46.104;12.908;2022-11-20T16:12:44;10.50;99.90
33093;DHT22;19456;46.104;12.908;2022-11-20T16:15:28;10.20;99.90
33093;DHT22;19456;46.104;12.908;2022-11-20T16:18:14;10.00;99.90
33093;DHT22;19456;46.104;12.908;2022-11-20T16:20:40;10.00;99.90
33093;DHT22;19456;46.104;12.908;2022-11-20T16:23:06;10.00;99.90
33093;DHT22;19456;46.104;12.908;2022-11-20T16:25:31;10.10;99.90
33093;DHT22;19456;46.104;12.908;2022-11-20T16:27:57;10.10;99.90
33093;DHT22;19456;46.104;12.908;2022-11-20T16:30:23;10.10;99.90
33093;DHT22;19456;46.104;12.908;2022-11-20T16:32:48;10.10;99.90
33093;DHT22;19456;46.104;12.908;2022-11-20T16:35:14;9.90;99.90
33093;DHT22;19456;46.104;12.908;2022-11-20T16:37:39;9.80;99.90
33093;DHT22;19456;46.104;12.908;2022-11-20T16:40:05;9.70;99.90
33093;DHT22;19456;46.104;12.908;2022-11-20T16:42:34;9.80;99.90